OAL176 LGRP-LGKO
Flight info
| Callsign | OAL176 |
|---|---|
| Flight time | 0h 12m |
| Altitude | 10000 |
| Route | CODIC DCT FD32 |
| Aircraft | A20N/M-SDE2E3FGHIRWXY/LB1 |
Departure
| Time | 2026-04-27 17:01 |
|---|---|
| Airport | Rhodes International Airport "Diagoras" (LGRP) |
Arrival
| Time | 2026-04-27 17:13 |
|---|---|
| Airport | Kos International Airport "Ippokratis" (LGKO) |
| Time | Latitude | Longitude | Altitude | Speed | Heading |
|---|---|---|---|---|---|
| 2026-04-27 16:09 | 36.40409 | 28.09291 | 28 ft | 0 kts | 160° |
| 2026-04-27 16:51 | 36.40422 | 28.09285 | 28 ft | 4 kts | 160° |
| 2026-04-27 16:51 | 36.40447 | 28.09274 | 28 ft | 4 kts | 159° |
| 2026-04-27 16:51 | 36.40464 | 28.09265 | 28 ft | 2 kts | 145° |
| 2026-04-27 16:51 | 36.40472 | 28.09255 | 28 ft | 2 kts | 81° |
| 2026-04-27 16:52 | 36.40469 | 28.09242 | 28 ft | 0 kts | 74° |
| 2026-04-27 16:56 | 36.40472 | 28.09254 | 28 ft | 4 kts | 74° |
| 2026-04-27 16:56 | 36.40485 | 28.09302 | 28 ft | 8 kts | 67° |
| 2026-04-27 16:57 | 36.40529 | 28.09367 | 28 ft | 11 kts | 36° |
| 2026-04-27 16:57 | 36.40597 | 28.09448 | 28 ft | 16 kts | 62° |
| 2026-04-27 16:57 | 36.40641 | 28.09592 | 28 ft | 20 kts | 70° |
| 2026-04-27 16:57 | 36.40690 | 28.09761 | 28 ft | 15 kts | 70° |
| 2026-04-27 16:58 | 36.40732 | 28.09902 | 28 ft | 20 kts | 70° |
| 2026-04-27 16:58 | 36.40783 | 28.10077 | 28 ft | 24 kts | 70° |
| 2026-04-27 16:58 | 36.40832 | 28.10248 | 28 ft | 15 kts | 70° |
| 2026-04-27 16:58 | 36.40858 | 28.10338 | 28 ft | 18 kts | 70° |
| 2026-04-27 16:59 | 36.40941 | 28.10426 | 28 ft | 19 kts | 341° |
| 2026-04-27 16:59 | 36.41004 | 28.10285 | 27 ft | 21 kts | 279° |
| 2026-04-27 16:59 | 36.41003 | 28.10210 | 27 ft | 0 kts | 251° |
| 2026-04-27 17:00 | 36.41003 | 28.10209 | 27 ft | 0 kts | 251° |
| 2026-04-27 17:00 | 36.40912 | 28.09890 | 26 ft | 76 kts | 250° |
| 2026-04-27 17:00 | 36.40660 | 28.09038 | 31 ft | 132 kts | 250° |
| 2026-04-27 17:01 | 36.40319 | 28.07877 | 330 ft | 150 kts | 249° |
| 2026-04-27 17:01 | 36.39945 | 28.06594 | 744 ft | 161 kts | 250° |
| 2026-04-27 17:01 | 36.39566 | 28.05335 | 1557 ft | 150 kts | 253° |
| 2026-04-27 17:01 | 36.39203 | 28.04114 | 2087 ft | 161 kts | 255° |
| 2026-04-27 17:02 | 36.39055 | 28.02672 | 2449 ft | 177 kts | 281° |
| 2026-04-27 17:02 | 36.39406 | 28.01119 | 2839 ft | 200 kts | 291° |
| 2026-04-27 17:02 | 36.39862 | 27.99370 | 3381 ft | 226 kts | 289° |
| 2026-04-27 17:02 | 36.40365 | 27.97412 | 4071 ft | 250 kts | 289° |
| 2026-04-27 17:03 | 36.40909 | 27.95276 | 4886 ft | 266 kts | 288° |
| 2026-04-27 17:03 | 36.41474 | 27.93050 | 5935 ft | 273 kts | 288° |
| 2026-04-27 17:03 | 36.42055 | 27.90769 | 6986 ft | 279 kts | 288° |
| 2026-04-27 17:03 | 36.42644 | 27.88464 | 8135 ft | 281 kts | 288° |
| 2026-04-27 17:04 | 36.43241 | 27.86124 | 9112 ft | 288 kts | 288° |
| 2026-04-27 17:04 | 36.43850 | 27.83741 | 9626 ft | 291 kts | 288° |
| 2026-04-27 17:04 | 36.44463 | 27.81338 | 9862 ft | 292 kts | 287° |
| 2026-04-27 17:04 | 36.45076 | 27.78933 | 9959 ft | 292 kts | 287° |
| 2026-04-27 17:05 | 36.45687 | 27.76532 | 9972 ft | 291 kts | 287° |
| 2026-04-27 17:05 | 36.46317 | 27.74077 | 9982 ft | 314 kts | 289° |
| 2026-04-27 17:05 | 36.47133 | 27.71424 | 9974 ft | 336 kts | 291° |
| 2026-04-27 17:05 | 36.47973 | 27.68713 | 9982 ft | 335 kts | 291° |
| 2026-04-27 17:06 | 36.48792 | 27.66069 | 9980 ft | 319 kts | 291° |
| 2026-04-27 17:06 | 36.49566 | 27.63572 | 9972 ft | 301 kts | 291° |
| 2026-04-27 17:06 | 36.50288 | 27.61244 | 9983 ft | 288 kts | 291° |
| 2026-04-27 17:06 | 36.51032 | 27.58844 | 9981 ft | 316 kts | 291° |
| 2026-04-27 17:07 | 36.51856 | 27.56183 | 9978 ft | 335 kts | 291° |
| 2026-04-27 17:07 | 36.52675 | 27.53540 | 9979 ft | 319 kts | 291° |
| 2026-04-27 17:07 | 36.53454 | 27.51024 | 9864 ft | 305 kts | 291° |
| 2026-04-27 17:07 | 36.54212 | 27.48579 | 9328 ft | 305 kts | 291° |
| 2026-04-27 17:08 | 36.54986 | 27.46080 | 8495 ft | 315 kts | 291° |
| 2026-04-27 17:08 | 36.55787 | 27.43488 | 7598 ft | 326 kts | 291° |
| 2026-04-27 17:08 | 36.56615 | 27.40801 | 6606 ft | 339 kts | 291° |
| 2026-04-27 17:08 | 36.57471 | 27.38019 | 5607 ft | 348 kts | 291° |
| 2026-04-27 17:09 | 36.58345 | 27.35172 | 4755 ft | 352 kts | 292° |
| 2026-04-27 17:09 | 36.59205 | 27.32364 | 4298 ft | 342 kts | 292° |
| 2026-04-27 17:09 | 36.60034 | 27.29652 | 4084 ft | 326 kts | 293° |
| 2026-04-27 17:09 | 36.60819 | 27.27076 | 3926 ft | 309 kts | 293° |
| 2026-04-27 17:10 | 36.61574 | 27.24637 | 3773 ft | 294 kts | 295° |
| 2026-04-27 17:10 | 36.62624 | 27.22564 | 3653 ft | 276 kts | 314° |
| 2026-04-27 17:10 | 36.64055 | 27.21098 | 3535 ft | 259 kts | 329° |
| 2026-04-27 17:10 | 36.65566 | 27.19936 | 3217 ft | 255 kts | 329° |
| 2026-04-27 17:11 | 36.67091 | 27.18749 | 2734 ft | 259 kts | 329° |
| 2026-04-27 17:11 | 36.70001 | 27.16459 | 2415 ft | 236 kts | 330° |
| 2026-04-27 17:11 | 36.71371 | 27.15386 | 2155 ft | 230 kts | 330° |
| 2026-04-27 17:12 | 36.74059 | 27.13309 | 1473 ft | 222 kts | 330° |
| 2026-04-27 17:12 | 36.75317 | 27.12345 | 1146 ft | 203 kts | 329° |
| 2026-04-27 17:12 | 36.76469 | 27.11450 | 846 ft | 189 kts | 328° |
| 2026-04-27 17:13 | 36.77525 | 27.10593 | 602 ft | 175 kts | 327° |
| 2026-04-27 17:13 | 36.78518 | 27.09840 | 429 ft | 159 kts | 330° |
| 2026-04-27 17:13 | 36.79292 | 27.09254 | 409 ft | 76 kts | 328° |
| 2026-04-27 17:13 | 36.79567 | 27.09041 | 419 ft | 23 kts | 329° |
| 2026-04-27 17:14 | 36.79698 | 27.08986 | 412 ft | 20 kts | 354° |
| 2026-04-27 17:14 | 36.79797 | 27.08988 | 410 ft | 0 kts | 357° |
| 2026-04-27 17:16 | 36.79798 | 27.08988 | 410 ft | 1 kts | 357° |
| 2026-04-27 17:16 | 36.79818 | 27.08986 | 414 ft | 5 kts | 357° |
| 2026-04-27 17:16 | 36.79866 | 27.08983 | 413 ft | 9 kts | 357° |
| 2026-04-27 17:17 | 36.79940 | 27.08974 | 414 ft | 12 kts | 341° |
| 2026-04-27 17:17 | 36.80012 | 27.08919 | 414 ft | 7 kts | 328° |
| 2026-04-27 17:17 | 36.80052 | 27.08928 | 418 ft | 7 kts | 65° |
| 2026-04-27 17:18 | 36.80077 | 27.08981 | 412 ft | 2 kts | 57° |
| 2026-04-27 17:18 | 36.80078 | 27.08982 | 412 ft | 0 kts | 57° |